sensor_id;sensor_type;location;lat;lon;timestamp;temperature;humidity
18721;DHT22;9489;50.948;3.114;2023-05-29T00:00:14;14.20;99.90
18721;DHT22;9489;50.948;3.114;2023-05-29T00:02:43;14.20;99.90
18721;DHT22;9489;50.948;3.114;2023-05-29T00:05:10;14.20;99.90
18721;DHT22;9489;50.948;3.114;2023-05-29T00:07:37;14.10;99.90
18721;DHT22;9489;50.948;3.114;2023-05-29T00:10:04;14.20;99.90
18721;DHT22;9489;50.948;3.114;2023-05-29T00:12:29;14.10;99.90
18721;DHT22;9489;50.948;3.114;2023-05-29T00:14:55;14.20;99.90
18721;DHT22;9489;50.948;3.114;2023-05-29T00:17:21;14.20;99.90
18721;DHT22;9489;50.948;3.114;2023-05-29T00:19:46;14.10;99.90
18721;DHT22;9489;50.948;3.114;2023-05-29T00:22:12;14.10;99.90
18721;DHT22;9489;50.948;3.114;2023-05-29T00:24:38;14.10;99.90
18721;DHT22;9489;50.948;3.114;2023-05-29T00:27:04;14.10;99.90
18721;DHT22;9489;50.948;3.114;2023-05-29T00:29:29;14.00;99.90
18721;DHT22;9489;50.948;3.114;2023-05-29T00:31:56;14.00;99.90
18721;DHT22;9489;50.948;3.114;2023-05-29T00:34:25;14.00;99.90
18721;DHT22;9489;50.948;3.114;2023-05-29T00:36:50;13.90;99.90
18721;DHT22;9489;50.948;3.114;2023-05-29T00:39:16;13.90;99.90
18721;DHT22;9489;50.948;3.114;2023-05-29T00:41:42;13.90;99.90
18721;DHT22;9489;50.948;3.114;2023-05-29T00:44:07;13.80;99.90
18721;DHT22;9489;50.948;3.114;2023-05-29T00:46:34;13.80;99.90
18721;DHT22;9489;50.948;3.114;2023-05-29T00:49:00;13.80;99.90
18721;DHT22;9489;50.948;3.114;2023-05-29T00:51:27;13.80;99.90
18721;DHT22;9489;50.948;3.114;2023-05-29T00:53:54;13.70;99.90
18721;DHT22;9489;50.948;3.114;2023-05-29T00:56:21;13.80;99.90
18721;DHT22;9489;50.948;3.114;2023-05-29T00:58:49;13.80;99.90
18721;DHT22;9489;50.948;3.114;2023-05-29T01:01:16;13.70;99.90
18721;DHT22;9489;50.948;3.114;2023-05-29T01:03:43;13.70;99.90
18721;DHT22;9489;50.948;3.114;2023-05-29T01:06:08;13.70;99.90
18721;DHT22;9489;50.948;3.114;2023-05-29T01:08:35;13.60;99.90
18721;DHT22;9489;50.948;3.114;2023-05-29T01:11:12;13.70;99.90
18721;DHT22;9489;50.948;3.114;2023-05-29T01:13:43;13.60;99.90
18721;DHT22;9489;50.948;3.114;2023-05-29T01:18:57;13.60;99.90
18721;DHT22;9489;50.948;3.114;2023-05-29T01:25:33;13.60;99.90
18721;DHT22;9489;50.948;3.114;2023-05-29T01:27:38;13.50;99.90
18721;DHT22;9489;50.948;3.114;2023-05-29T01:30:06;13.40;99.90
18721;DHT22;9489;50.948;3.114;2023-05-29T01:32:33;13.40;99.90
18721;DHT22;9489;50.948;3.114;2023-05-29T01:34:59;13.40;97.00
18721;DHT22;9489;50.948;3.114;2023-05-29T01:37:24;13.40;93.50
18721;DHT22;9489;50.948;3.114;2023-05-29T01:39:50;13.40;90.40
18721;DHT22;9489;50.948;3.114;2023-05-29T01:42:16;13.40;81.20
18721;DHT22;9489;50.948;3.114;2023-05-29T01:44:42;13.40;72.70
18721;DHT22;9489;50.948;3.114;2023-05-29T01:47:08;13.30;60.10
18721;DHT22;9489;50.948;3.114;2023-05-29T01:49:36;13.30;52.20
18721;DHT22;9489;50.948;3.114;2023-05-29T01:52:03;13.20;54.80
18721;DHT22;9489;50.948;3.114;2023-05-29T01:54:29;13.20;48.40
18721;DHT22;9489;50.948;3.114;2023-05-29T01:56:55;13.20;43.90
18721;DHT22;9489;50.948;3.114;2023-05-29T01:59:21;13.20;32.30
18721;DHT22;9489;50.948;3.114;2023-05-29T02:01:48;13.20;27.00
18721;DHT22;9489;50.948;3.114;2023-05-29T02:04:13;13.10;25.90
18721;DHT22;9489;50.948;3.114;2023-05-29T02:06:39;13.10;23.80
18721;DHT22;9489;50.948;3.114;2023-05-29T02:09:05;13.10;22.10
18721;DHT22;9489;50.948;3.114;2023-05-29T02:11:32;13.00;14.80
18721;DHT22;9489;50.948;3.114;2023-05-29T02:13:57;13.00;11.80
18721;DHT22;9489;50.948;3.114;2023-05-29T02:16:23;13.00;12.10
18721;DHT22;9489;50.948;3.114;2023-05-29T02:18:48;12.90;12.00
18721;DHT22;9489;50.948;3.114;2023-05-29T02:21:14;12.90;13.40
18721;DHT22;9489;50.948;3.114;2023-05-29T02:23:40;12.90;14.50
18721;DHT22;9489;50.948;3.114;2023-05-29T02:26:06;12.90;11.30
18721;DHT22;9489;50.948;3.114;2023-05-29T02:28:31;12.90;9.20
18721;DHT22;9489;50.948;3.114;2023-05-29T02:30:57;12.90;9.50
18721;DHT22;9489;50.948;3.114;2023-05-29T02:33:23;12.90;11.20
18721;DHT22;9489;50.948;3.114;2023-05-29T02:35:48;12.80;15.70
18721;DHT22;9489;50.948;3.114;2023-05-29T02:38:15;12.80;16.50
18721;DHT22;9489;50.948;3.114;2023-05-29T02:40:40;12.70;17.50
18721;DHT22;9489;50.948;3.114;2023-05-29T02:43:09;12.70;17.80
18721;DHT22;9489;50.948;3.114;2023-05-29T02:45:34;12.70;22.80
18721;DHT22;9489;50.948;3.114;2023-05-29T02:48:00;12.70;22.50
18721;DHT22;9489;50.948;3.114;2023-05-29T02:50:26;12.70;27.80
18721;DHT22;9489;50.948;3.114;2023-05-29T02:52:53;12.70;23.60
18721;DHT22;9489;50.948;3.114;2023-05-29T02:55:18;12.70;25.50
18721;DHT22;9489;50.948;3.114;2023-05-29T02:57:44;12.60;34.60
18721;DHT22;9489;50.948;3.114;2023-05-29T03:00:10;12.60;36.20
18721;DHT22;9489;50.948;3.114;2023-05-29T03:02:36;12.60;35.30
18721;DHT22;9489;50.948;3.114;2023-05-29T03:05:02;12.60;37.50
18721;DHT22;9489;50.948;3.114;2023-05-29T03:07:28;12.60;40.70
18721;DHT22;9489;50.948;3.114;2023-05-29T03:09:54;12.60;44.00
18721;DHT22;9489;50.948;3.114;2023-05-29T03:12:20;12.50;44.20
18721;DHT22;9489;50.948;3.114;2023-05-29T03:14:46;12.60;41.10
18721;DHT22;9489;50.948;3.114;2023-05-29T03:17:12;12.60;40.10
18721;DHT22;9489;50.948;3.114;2023-05-29T03:19:38;12.60;40.30
18721;DHT22;9489;50.948;3.114;2023-05-29T03:22:04;12.50;48.40
18721;DHT22;9489;50.948;3.114;2023-05-29T03:24:29;12.50;53.20
18721;DHT22;9489;50.948;3.114;2023-05-29T03:26:55;12.50;58.30
18721;DHT22;9489;50.948;3.114;2023-05-29T03:29:21;12.40;57.40
18721;DHT22;9489;50.948;3.114;2023-05-29T03:31:47;12.40;64.10
18721;DHT22;9489;50.948;3.114;2023-05-29T03:34:13;12.40;68.60
18721;DHT22;9489;50.948;3.114;2023-05-29T03:36:39;12.30;75.60
18721;DHT22;9489;50.948;3.114;2023-05-29T03:39:05;12.30;78.20
18721;DHT22;9489;50.948;3.114;2023-05-29T03:41:31;12.30;87.30
18721;DHT22;9489;50.948;3.114;2023-05-29T03:43:57;12.30;86.60
18721;DHT22;9489;50.948;3.114;2023-05-29T03:46:23;12.30;92.40
18721;DHT22;9489;50.948;3.114;2023-05-29T03:48:48;12.30;90.30
18721;DHT22;9489;50.948;3.114;2023-05-29T03:51:14;12.30;92.30
18721;DHT22;9489;50.948;3.114;2023-05-29T03:53:40;12.20;94.60
18721;DHT22;9489;50.948;3.114;2023-05-29T03:56:05;12.30;93.80
18721;DHT22;9489;50.948;3.114;2023-05-29T03:58:31;12.30;91.90
18721;DHT22;9489;50.948;3.114;2023-05-29T04:00:56;12.30;95.20
18721;DHT22;9489;50.948;3.114;2023-05-29T04:03:22;12.30;92.80
18721;DHT22;9489;50.948;3.114;2023-05-29T04:05:48;12.30;94.60
18721;DHT22;9489;50.948;3.114;2023-05-29T04:08:14;12.30;95.70
18721;DHT22;9489;50.948;3.114;2023-05-29T04:10:39;12.30;94.20
18721;DHT22;9489;50.948;3.114;2023-05-29T04:13:05;12.30;95.40
18721;DHT22;9489;50.948;3.114;2023-05-29T04:15:33;12.30;99.90
18721;DHT22;9489;50.948;3.114;2023-05-29T04:18:00;12.30;99.60
18721;DHT22;9489;50.948;3.114;2023-05-29T04:20:26;12.30;98.60
18721;DHT22;9489;50.948;3.114;2023-05-29T04:22:52;12.30;99.90
18721;DHT22;9489;50.948;3.114;2023-05-29T04:25:17;12.30;99.90
18721;DHT22;9489;50.948;3.114;2023-05-29T04:27:46;12.30;99.90
18721;DHT22;9489;50.948;3.114;2023-05-29T04:30:16;12.20;99.90
18721;DHT22;9489;50.948;3.114;2023-05-29T04:32:42;12.30;99.90
18721;DHT22;9489;50.948;3.114;2023-05-29T04:35:08;12.30;99.90
18721;DHT22;9489;50.948;3.114;2023-05-29T04:37:35;12.30;99.90
18721;DHT22;9489;50.948;3.114;2023-05-29T04:40:07;12.30;99.90
18721;DHT22;9489;50.948;3.114;2023-05-29T04:42:35;12.40;99.90
18721;DHT22;9489;50.948;3.114;2023-05-29T04:45:01;12.40;99.90
18721;DHT22;9489;50.948;3.114;2023-05-29T04:47:27;12.50;99.90
18721;DHT22;9489;50.948;3.114;2023-05-29T04:49:54;12.50;99.90
18721;DHT22;9489;50.948;3.114;2023-05-29T04:52:19;12.50;99.30
18721;DHT22;9489;50.948;3.114;2023-05-29T04:54:46;12.60;99.90
18721;DHT22;9489;50.948;3.114;2023-05-29T04:57:12;12.50;99.90
18721;DHT22;9489;50.948;3.114;2023-05-29T04:59:37;12.60;99.70
18721;DHT22;9489;50.948;3.114;2023-05-29T05:02:03;12.60;97.90
18721;DHT22;9489;50.948;3.114;2023-05-29T05:04:29;12.60;95.30
18721;DHT22;9489;50.948;3.114;2023-05-29T05:06:55;12.70;95.50
18721;DHT22;9489;50.948;3.114;2023-05-29T05:09:21;12.80;91.10
18721;DHT22;9489;50.948;3.114;2023-05-29T05:11:46;12.80;86.90
18721;DHT22;9489;50.948;3.114;2023-05-29T05:14:12;12.80;78.40
18721;DHT22;9489;50.948;3.114;2023-05-29T05:16:38;12.80;74.70
18721;DHT22;9489;50.948;3.114;2023-05-29T05:19:03;12.80;74.70
18721;DHT22;9489;50.948;3.114;2023-05-29T05:21:29;12.90;64.10
18721;DHT22;9489;50.948;3.114;2023-05-29T05:23:58;13.00;48.90
18721;DHT22;9489;50.948;3.114;2023-05-29T05:26:24;12.90;48.70
18721;DHT22;9489;50.948;3.114;2023-05-29T05:28:51;13.00;29.20
18721;DHT22;9489;50.948;3.114;2023-05-29T05:31:17;13.10;19.20
18721;DHT22;9489;50.948;3.114;2023-05-29T05:33:42;13.20;11.10
18721;DHT22;9489;50.948;3.114;2023-05-29T05:36:08;13.30;1.00
18721;DHT22;9489;50.948;3.114;2023-05-29T05:38:33;13.30;1.00
18721;DHT22;9489;50.948;3.114;2023-05-29T05:40:59;13.40;1.00
18721;DHT22;9489;50.948;3.114;2023-05-29T05:43:25;13.50;1.00
18721;DHT22;9489;50.948;3.114;2023-05-29T05:45:52;13.50;1.00
18721;DHT22;9489;50.948;3.114;2023-05-29T05:48:18;13.60;1.00
18721;DHT22;9489;50.948;3.114;2023-05-29T05:50:43;13.70;1.00
18721;DHT22;9489;50.948;3.114;2023-05-29T05:53:09;13.70;1.00
18721;DHT22;9489;50.948;3.114;2023-05-29T05:55:35;13.80;1.00
18721;DHT22;9489;50.948;3.114;2023-05-29T05:58:00;13.90;1.00
18721;DHT22;9489;50.948;3.114;2023-05-29T06:00:26;13.90;1.00
18721;DHT22;9489;50.948;3.114;2023-05-29T06:02:51;13.80;1.00
18721;DHT22;9489;50.948;3.114;2023-05-29T06:05:17;14.00;1.00
18721;DHT22;9489;50.948;3.114;2023-05-29T06:07:43;14.20;1.00
18721;DHT22;9489;50.948;3.114;2023-05-29T06:10:09;14.20;1.00
18721;DHT22;9489;50.948;3.114;2023-05-29T06:12:35;14.20;1.00
18721;DHT22;9489;50.948;3.114;2023-05-29T06:15:01;14.20;1.00
18721;DHT22;9489;50.948;3.114;2023-05-29T06:17:26;14.40;1.00
18721;DHT22;9489;50.948;3.114;2023-05-29T06:19:52;14.50;99.90
18721;DHT22;9489;50.948;3.114;2023-05-29T06:22:18;14.70;96.50
18721;DHT22;9489;50.948;3.114;2023-05-29T06:24:44;14.80;1.00
18721;DHT22;9489;50.948;3.114;2023-05-29T06:27:10;14.90;1.00
18721;DHT22;9489;50.948;3.114;2023-05-29T06:29:36;14.80;1.00
18721;DHT22;9489;50.948;3.114;2023-05-29T06:32:02;14.90;99.90
18721;DHT22;9489;50.948;3.114;2023-05-29T06:34:27;14.90;1.00
18721;DHT22;9489;50.948;3.114;2023-05-29T06:36:53;15.00;1.00
18721;DHT22;9489;50.948;3.114;2023-05-29T06:39:18;15.00;1.00
18721;DHT22;9489;50.948;3.114;2023-05-29T06:41:45;15.10;99.90
18721;DHT22;9489;50.948;3.114;2023-05-29T06:44:11;15.20;99.90
18721;DHT22;9489;50.948;3.114;2023-05-29T06:46:37;15.30;1.00
18721;DHT22;9489;50.948;3.114;2023-05-29T06:49:02;15.40;99.90
18721;DHT22;9489;50.948;3.114;2023-05-29T06:51:28;15.40;99.90
18721;DHT22;9489;50.948;3.114;2023-05-29T06:53:54;15.30;1.00
18721;DHT22;9489;50.948;3.114;2023-05-29T06:56:20;15.40;99.90
18721;DHT22;9489;50.948;3.114;2023-05-29T06:58:46;15.40;99.90
18721;DHT22;9489;50.948;3.114;2023-05-29T07:01:12;15.40;1.00
18721;DHT22;9489;50.948;3.114;2023-05-29T07:03:37;15.60;48.70
18721;DHT22;9489;50.948;3.114;2023-05-29T07:06:04;15.70;1.00
18721;DHT22;9489;50.948;3.114;2023-05-29T07:08:29;15.90;1.00
18721;DHT22;9489;50.948;3.114;2023-05-29T07:10:55;16.10;99.90
18721;DHT22;9489;50.948;3.114;2023-05-29T07:13:21;16.30;1.00
18721;DHT22;9489;50.948;3.114;2023-05-29T07:15:48;16.30;99.90
18721;DHT22;9489;50.948;3.114;2023-05-29T07:18:14;16.40;87.30
18721;DHT22;9489;50.948;3.114;2023-05-29T07:20:40;16.40;1.00
18721;DHT22;9489;50.948;3.114;2023-05-29T07:23:06;16.50;1.00
18721;DHT22;9489;50.948;3.114;2023-05-29T07:25:31;16.50;1.00
18721;DHT22;9489;50.948;3.114;2023-05-29T07:27:57;16.80;99.90
18721;DHT22;9489;50.948;3.114;2023-05-29T07:30:23;16.90;1.00
18721;DHT22;9489;50.948;3.114;2023-05-29T07:32:49;17.10;1.00
18721;DHT22;9489;50.948;3.114;2023-05-29T07:35:15;17.20;98.10
18721;DHT22;9489;50.948;3.114;2023-05-29T07:37:40;17.30;92.90
18721;DHT22;9489;50.948;3.114;2023-05-29T07:40:06;17.40;1.00
18721;DHT22;9489;50.948;3.114;2023-05-29T07:42:33;17.60;99.90
18721;DHT22;9489;50.948;3.114;2023-05-29T07:44:59;17.60;1.00
18721;DHT22;9489;50.948;3.114;2023-05-29T07:47:25;17.50;1.00
18721;DHT22;9489;50.948;3.114;2023-05-29T07:49:50;17.80;1.00
18721;DHT22;9489;50.948;3.114;2023-05-29T07:52:17;18.00;99.90
18721;DHT22;9489;50.948;3.114;2023-05-29T07:54:43;18.30;99.90
18721;DHT22;9489;50.948;3.114;2023-05-29T07:57:09;18.50;1.00
18721;DHT22;9489;50.948;3.114;2023-05-29T07:59:40;18.80;1.00
18721;DHT22;9489;50.948;3.114;2023-05-29T08:02:07;19.10;1.00
18721;DHT22;9489;50.948;3.114;2023-05-29T08:04:33;19.40;99.90
18721;DHT22;9489;50.948;3.114;2023-05-29T08:07:01;19.60;99.90
18721;DHT22;9489;50.948;3.114;2023-05-29T08:09:29;19.70;40.90
18721;DHT22;9489;50.948;3.114;2023-05-29T08:11:54;20.10;1.00
18721;DHT22;9489;50.948;3.114;2023-05-29T08:14:20;19.70;1.00
18721;DHT22;9489;50.948;3.114;2023-05-29T08:16:46;19.80;1.00
18721;DHT22;9489;50.948;3.114;2023-05-29T08:19:12;19.90;1.00
18721;DHT22;9489;50.948;3.114;2023-05-29T08:21:37;20.10;1.00
18721;DHT22;9489;50.948;3.114;2023-05-29T08:24:03;20.00;1.00
18721;DHT22;9489;50.948;3.114;2023-05-29T08:26:32;20.00;1.00
18721;DHT22;9489;50.948;3.114;2023-05-29T08:28:58;20.10;1.00
18721;DHT22;9489;50.948;3.114;2023-05-29T08:31:23;20.30;1.00
18721;DHT22;9489;50.948;3.114;2023-05-29T08:33:51;20.10;1.00
18721;DHT22;9489;50.948;3.114;2023-05-29T08:36:17;20.60;1.00
18721;DHT22;9489;50.948;3.114;2023-05-29T08:38:43;21.00;1.00
18721;DHT22;9489;50.948;3.114;2023-05-29T08:41:11;21.20;1.00
18721;DHT22;9489;50.948;3.114;2023-05-29T08:43:41;21.40;1.00
18721;DHT22;9489;50.948;3.114;2023-05-29T08:46:07;21.60;1.00
18721;DHT22;9489;50.948;3.114;2023-05-29T08:48:36;21.50;1.00
18721;DHT22;9489;50.948;3.114;2023-05-29T08:51:04;21.50;1.00
18721;DHT22;9489;50.948;3.114;2023-05-29T08:53:32;21.50;1.00
18721;DHT22;9489;50.948;3.114;2023-05-29T08:55:59;21.70;1.00
18721;DHT22;9489;50.948;3.114;2023-05-29T08:58:26;22.10;1.00
18721;DHT22;9489;50.948;3.114;2023-05-29T09:00:52;22.50;1.00
18721;DHT22;9489;50.948;3.114;2023-05-29T09:03:17;22.40;1.00
18721;DHT22;9489;50.948;3.114;2023-05-29T09:05:44;22.50;1.00
18721;DHT22;9489;50.948;3.114;2023-05-29T09:08:10;22.70;99.90
18721;DHT22;9489;50.948;3.114;2023-05-29T09:10:43;23.00;99.90
18721;DHT22;9489;50.948;3.114;2023-05-29T09:13:10;22.90;99.90
18721;DHT22;9489;50.948;3.114;2023-05-29T09:15:37;22.40;99.90
18721;DHT22;9489;50.948;3.114;2023-05-29T09:18:05;22.60;99.90
18721;DHT22;9489;50.948;3.114;2023-05-29T09:20:31;22.60;99.90
18721;DHT22;9489;50.948;3.114;2023-05-29T09:22:58;23.00;99.90
18721;DHT22;9489;50.948;3.114;2023-05-29T09:25:26;23.10;99.90
18721;DHT22;9489;50.948;3.114;2023-05-29T09:27:58;23.10;99.90
18721;DHT22;9489;50.948;3.114;2023-05-29T09:30:35;23.30;99.90
18721;DHT22;9489;50.948;3.114;2023-05-29T09:33:01;23.30;99.90
18721;DHT22;9489;50.948;3.114;2023-05-29T09:35:33;23.30;99.90
18721;DHT22;9489;50.948;3.114;2023-05-29T09:37:59;23.20;99.90
18721;DHT22;9489;50.948;3.114;2023-05-29T09:40:26;23.50;99.90
18721;DHT22;9489;50.948;3.114;2023-05-29T09:42:51;23.50;99.90
18721;DHT22;9489;50.948;3.114;2023-05-29T09:45:17;23.70;99.90
18721;DHT22;9489;50.948;3.114;2023-05-29T09:47:43;24.40;99.90
18721;DHT22;9489;50.948;3.114;2023-05-29T09:50:18;24.20;99.90
18721;DHT22;9489;50.948;3.114;2023-05-29T09:52:47;24.50;99.90
18721;DHT22;9489;50.948;3.114;2023-05-29T09:55:19;24.20;99.90
18721;DHT22;9489;50.948;3.114;2023-05-29T09:57:47;23.80;99.90
18721;DHT22;9489;50.948;3.114;2023-05-29T10:00:15;23.60;99.90
18721;DHT22;9489;50.948;3.114;2023-05-29T10:02:42;23.90;99.90
18721;DHT22;9489;50.948;3.114;2023-05-29T10:05:08;23.80;99.90
18721;DHT22;9489;50.948;3.114;2023-05-29T10:07:37;23.80;99.90
18721;DHT22;9489;50.948;3.114;2023-05-29T10:10:04;24.20;99.90
18721;DHT22;9489;50.948;3.114;2023-05-29T10:12:44;24.50;99.90
18721;DHT22;9489;50.948;3.114;2023-05-29T10:15:15;24.80;99.90
18721;DHT22;9489;50.948;3.114;2023-05-29T10:17:51;24.80;99.90
18721;DHT22;9489;50.948;3.114;2023-05-29T10:20:20;24.50;99.90
18721;DHT22;9489;50.948;3.114;2023-05-29T10:22:49;25.00;99.90
18721;DHT22;9489;50.948;3.114;2023-05-29T10:25:19;25.10;99.90
18721;DHT22;9489;50.948;3.114;2023-05-29T10:27:47;25.20;99.90
18721;DHT22;9489;50.948;3.114;2023-05-29T10:35:51;26.10;99.90
18721;DHT22;9489;50.948;3.114;2023-05-29T10:38:19;26.20;99.90
18721;DHT22;9489;50.948;3.114;2023-05-29T10:40:46;26.40;99.90
18721;DHT22;9489;50.948;3.114;2023-05-29T10:43:41;26.30;99.90
18721;DHT22;9489;50.948;3.114;2023-05-29T10:46:09;26.60;99.90
18721;DHT22;9489;50.948;3.114;2023-05-29T10:48:39;26.70;99.90
18721;DHT22;9489;50.948;3.114;2023-05-29T10:51:07;26.30;99.90
18721;DHT22;9489;50.948;3.114;2023-05-29T10:53:33;26.10;99.90
18721;DHT22;9489;50.948;3.114;2023-05-29T10:56:00;26.20;99.90
18721;DHT22;9489;50.948;3.114;2023-05-29T10:58:27;26.20;99.90
18721;DHT22;9489;50.948;3.114;2023-05-29T11:00:54;26.50;99.90
18721;DHT22;9489;50.948;3.114;2023-05-29T11:03:22;26.90;99.90
18721;DHT22;9489;50.948;3.114;2023-05-29T11:06:20;26.90;99.90
18721;DHT22;9489;50.948;3.114;2023-05-29T11:08:48;26.70;99.90
18721;DHT22;9489;50.948;3.114;2023-05-29T11:13:53;26.10;99.90
18721;DHT22;9489;50.948;3.114;2023-05-29T11:18:55;26.00;99.90
18721;DHT22;9489;50.948;3.114;2023-05-29T11:24:05;26.30;99.90
18721;DHT22;9489;50.948;3.114;2023-05-29T11:26:32;26.00;99.90
18721;DHT22;9489;50.948;3.114;2023-05-29T11:29:04;25.70;99.90
18721;DHT22;9489;50.948;3.114;2023-05-29T11:31:33;25.80;99.90
18721;DHT22;9489;50.948;3.114;2023-05-29T11:34:01;26.00;99.90
18721;DHT22;9489;50.948;3.114;2023-05-29T11:36:30;25.80;99.90
18721;DHT22;9489;50.948;3.114;2023-05-29T11:38:56;25.80;99.90
18721;DHT22;9489;50.948;3.114;2023-05-29T11:41:22;25.80;99.90
18721;DHT22;9489;50.948;3.114;2023-05-29T11:44:02;26.00;99.90
18721;DHT22;9489;50.948;3.114;2023-05-29T11:46:29;26.30;99.90
18721;DHT22;9489;50.948;3.114;2023-05-29T11:49:01;26.60;99.90
18721;DHT22;9489;50.948;3.114;2023-05-29T11:51:27;26.60;99.90
18721;DHT22;9489;50.948;3.114;2023-05-29T11:53:53;26.50;99.90
18721;DHT22;9489;50.948;3.114;2023-05-29T11:56:30;26.20;99.90
18721;DHT22;9489;50.948;3.114;2023-05-29T11:58:57;26.10;99.90
18721;DHT22;9489;50.948;3.114;2023-05-29T12:01:25;26.20;99.90
18721;DHT22;9489;50.948;3.114;2023-05-29T12:03:52;25.80;99.90
18721;DHT22;9489;50.948;3.114;2023-05-29T12:06:34;25.70;99.90
18721;DHT22;9489;50.948;3.114;2023-05-29T12:09:02;25.60;99.90
18721;DHT22;9489;50.948;3.114;2023-05-29T12:11:31;25.60;99.90
18721;DHT22;9489;50.948;3.114;2023-05-29T12:14:01;25.60;99.90
18721;DHT22;9489;50.948;3.114;2023-05-29T12:16:28;25.40;99.90
18721;DHT22;9489;50.948;3.114;2023-05-29T12:18:55;25.30;99.90
18721;DHT22;9489;50.948;3.114;2023-05-29T12:21:22;25.00;99.90
18721;DHT22;9489;50.948;3.114;2023-05-29T12:23:48;24.80;99.90
18721;DHT22;9489;50.948;3.114;2023-05-29T12:26:16;24.70;99.90
18721;DHT22;9489;50.948;3.114;2023-05-29T12:28:46;24.80;99.90
18721;DHT22;9489;50.948;3.114;2023-05-29T12:31:11;24.70;99.90
18721;DHT22;9489;50.948;3.114;2023-05-29T12:33:43;24.60;99.90
18721;DHT22;9489;50.948;3.114;2023-05-29T12:36:09;24.80;99.90
18721;DHT22;9489;50.948;3.114;2023-05-29T12:38:50;24.70;99.90
18721;DHT22;9489;50.948;3.114;2023-05-29T12:41:55;24.70;99.90
18721;DHT22;9489;50.948;3.114;2023-05-29T12:44:15;24.80;99.90
18721;DHT22;9489;50.948;3.114;2023-05-29T12:46:44;24.70;99.90
18721;DHT22;9489;50.948;3.114;2023-05-29T12:49:13;24.70;99.90
18721;DHT22;9489;50.948;3.114;2023-05-29T12:51:43;24.20;99.90
18721;DHT22;9489;50.948;3.114;2023-05-29T12:54:14;24.40;99.90
18721;DHT22;9489;50.948;3.114;2023-05-29T12:56:40;24.40;99.90
18721;DHT22;9489;50.948;3.114;2023-05-29T12:59:09;24.40;99.90
18721;DHT22;9489;50.948;3.114;2023-05-29T13:01:36;24.60;99.90
18721;DHT22;9489;50.948;3.114;2023-05-29T13:04:05;24.40;99.90
18721;DHT22;9489;50.948;3.114;2023-05-29T13:06:35;24.30;99.90
18721;DHT22;9489;50.948;3.114;2023-05-29T13:09:01;24.50;99.90
18721;DHT22;9489;50.948;3.114;2023-05-29T13:11:26;24.40;99.90
18721;DHT22;9489;50.948;3.114;2023-05-29T13:13:52;24.30;99.90
18721;DHT22;9489;50.948;3.114;2023-05-29T13:16:18;24.30;99.90
18721;DHT22;9489;50.948;3.114;2023-05-29T13:18:44;24.30;99.90
18721;DHT22;9489;50.948;3.114;2023-05-29T13:21:09;24.10;99.90
18721;DHT22;9489;50.948;3.114;2023-05-29T13:23:36;23.90;99.90
18721;DHT22;9489;50.948;3.114;2023-05-29T13:26:03;24.00;99.90
18721;DHT22;9489;50.948;3.114;2023-05-29T13:28:29;24.10;99.90
18721;DHT22;9489;50.948;3.114;2023-05-29T13:30:54;24.10;99.90
18721;DHT22;9489;50.948;3.114;2023-05-29T13:33:20;23.90;99.90
18721;DHT22;9489;50.948;3.114;2023-05-29T13:35:46;23.90;99.90
18721;DHT22;9489;50.948;3.114;2023-05-29T13:38:11;24.00;99.90
18721;DHT22;9489;50.948;3.114;2023-05-29T13:40:37;24.00;99.90
18721;DHT22;9489;50.948;3.114;2023-05-29T13:43:03;23.60;99.90
18721;DHT22;9489;50.948;3.114;2023-05-29T13:45:28;23.40;99.90
18721;DHT22;9489;50.948;3.114;2023-05-29T13:47:55;23.30;99.90
18721;DHT22;9489;50.948;3.114;2023-05-29T13:50:21;23.30;99.90
18721;DHT22;9489;50.948;3.114;2023-05-29T13:52:48;23.30;99.90
18721;DHT22;9489;50.948;3.114;2023-05-29T13:55:14;23.40;99.90
18721;DHT22;9489;50.948;3.114;2023-05-29T13:57:40;23.60;99.90
18721;DHT22;9489;50.948;3.114;2023-05-29T14:00:07;23.30;99.90
18721;DHT22;9489;50.948;3.114;2023-05-29T14:02:33;23.20;99.90
18721;DHT22;9489;50.948;3.114;2023-05-29T14:04:58;23.00;99.90
18721;DHT22;9489;50.948;3.114;2023-05-29T14:07:24;22.90;99.90
18721;DHT22;9489;50.948;3.114;2023-05-29T14:09:50;23.00;99.90
18721;DHT22;9489;50.948;3.114;2023-05-29T14:12:16;23.00;99.90
18721;DHT22;9489;50.948;3.114;2023-05-29T14:14:42;22.90;99.90
18721;DHT22;9489;50.948;3.114;2023-05-29T14:17:07;22.90;99.90
18721;DHT22;9489;50.948;3.114;2023-05-29T14:19:34;22.70;99.90
18721;DHT22;9489;50.948;3.114;2023-05-29T14:22:00;22.70;99.90
18721;DHT22;9489;50.948;3.114;2023-05-29T14:24:26;22.70;99.90
18721;DHT22;9489;50.948;3.114;2023-05-29T14:26:52;22.70;99.90
18721;DHT22;9489;50.948;3.114;2023-05-29T14:29:18;22.50;99.90
18721;DHT22;9489;50.948;3.114;2023-05-29T14:31:43;22.60;99.90
18721;DHT22;9489;50.948;3.114;2023-05-29T14:34:11;22.90;99.90
18721;DHT22;9489;50.948;3.114;2023-05-29T14:36:37;23.00;99.90
18721;DHT22;9489;50.948;3.114;2023-05-29T14:39:05;23.00;99.90
18721;DHT22;9489;50.948;3.114;2023-05-29T14:41:31;23.00;99.90
18721;DHT22;9489;50.948;3.114;2023-05-29T14:43:57;22.70;99.90
18721;DHT22;9489;50.948;3.114;2023-05-29T14:46:24;22.60;99.90
18721;DHT22;9489;50.948;3.114;2023-05-29T14:48:51;22.50;99.90
18721;DHT22;9489;50.948;3.114;2023-05-29T14:51:17;22.30;99.90
18721;DHT22;9489;50.948;3.114;2023-05-29T14:53:44;22.10;1.00
18721;DHT22;9489;50.948;3.114;2023-05-29T14:56:10;22.00;1.00
18721;DHT22;9489;50.948;3.114;2023-05-29T14:58:35;21.70;1.00
18721;DHT22;9489;50.948;3.114;2023-05-29T15:01:01;21.40;1.00
18721;DHT22;9489;50.948;3.114;2023-05-29T15:03:26;21.40;1.00
18721;DHT22;9489;50.948;3.114;2023-05-29T15:05:53;21.20;1.00
18721;DHT22;9489;50.948;3.114;2023-05-29T15:08:19;21.30;1.00
18721;DHT22;9489;50.948;3.114;2023-05-29T15:10:45;21.10;1.00
18721;DHT22;9489;50.948;3.114;2023-05-29T15:13:10;21.20;37.20
18721;DHT22;9489;50.948;3.114;2023-05-29T15:15:36;21.20;28.40
18721;DHT22;9489;50.948;3.114;2023-05-29T15:18:02;21.00;99.90
18721;DHT22;9489;50.948;3.114;2023-05-29T15:20:27;21.00;99.90
18721;DHT22;9489;50.948;3.114;2023-05-29T15:22:53;21.20;99.90
18721;DHT22;9489;50.948;3.114;2023-05-29T15:25:20;21.20;99.90
18721;DHT22;9489;50.948;3.114;2023-05-29T15:27:46;21.10;99.90
18721;DHT22;9489;50.948;3.114;2023-05-29T15:30:14;20.90;99.90
18721;DHT22;9489;50.948;3.114;2023-05-29T15:32:41;20.80;99.90
18721;DHT22;9489;50.948;3.114;2023-05-29T15:35:08;20.60;1.00
18721;DHT22;9489;50.948;3.114;2023-05-29T15:37:34;20.60;1.00
18721;DHT22;9489;50.948;3.114;2023-05-29T15:40:01;20.40;1.00
18721;DHT22;9489;50.948;3.114;2023-05-29T15:42:26;20.30;1.00
18721;DHT22;9489;50.948;3.114;2023-05-29T15:44:52;20.30;1.00
18721;DHT22;9489;50.948;3.114;2023-05-29T15:47:17;20.40;1.00
18721;DHT22;9489;50.948;3.114;2023-05-29T15:49:43;20.50;1.00
18721;DHT22;9489;50.948;3.114;2023-05-29T15:52:09;20.40;1.00
18721;DHT22;9489;50.948;3.114;2023-05-29T15:54:34;20.10;1.00
18721;DHT22;9489;50.948;3.114;2023-05-29T15:57:00;20.00;99.90
18721;DHT22;9489;50.948;3.114;2023-05-29T15:59:28;19.90;99.90
18721;DHT22;9489;50.948;3.114;2023-05-29T16:01:54;19.80;99.90
18721;DHT22;9489;50.948;3.114;2023-05-29T16:04:19;19.80;99.90
18721;DHT22;9489;50.948;3.114;2023-05-29T16:06:45;19.80;1.00